This is the latest recevied weather packets stored in our database for station/object OM8AKX-12. If no packets are shown the sender has not sent any weather packets the latest 10 day(s).
| Time | Temp. | Humidity | Pressure | Rain* | Wind** | Luminosity | Snow |
|---|---|---|---|---|---|---|---|
| 1777901102 | 27.22° C | 18% | 1011.3 hPa | - | - | - | - |
| 1777900201 | 28.33° C | 17% | 1011.6 hPa | - | - | - | - |
| 1777899301 | 27.78° C | 18% | 1011.6 hPa | - | - | - | - |
| 1777898405 | 26.67° C | 19% | 1011.9 hPa | - | - | - | - |
| 1777897501 | 26.67° C | 17% | 1012.1 hPa | - | - | - | - |
| 1777896602 | 27.22° C | 17% | 1012.2 hPa | - | - | - | - |
| 1777895702 | 26.67° C | 18% | 1012.2 hPa | - | - | - | - |
| 1777894801 | 25° C | 20% | 1012.4 hPa | - | - | - | - |
| 1777893901 | 25.56° C | 18% | 1012.6 hPa | - | - | - | - |
| 1777893001 | 26.11° C | 18% | 1012.6 hPa | - | - | - | - |
| 1777891202 | 26.11° C | 19% | 1013.1 hPa | - | - | - | - |
| 1777890300 | 24.44° C | 20% | 1013.2 hPa | - | - | - | - |
| 1777889401 | 23.89° C | 20% | 1013.5 hPa | - | - | - | - |
| 1777888500 | 24.44° C | 21% | 1013.7 hPa | - | - | - | - |
| 1777887600 | 24.44° C | 22% | 1013.7 hPa | - | - | - | - |
| 1777886700 | 23.89° C | 25% | 1013.9 hPa | - | - | - | - |
| 1777885800 | 23.33° C | 26% | 1014.1 hPa | - | - | - | - |
| 1777884900 | 22.78° C | 27% | 1014.3 hPa | - | - | - | - |
| 1777884000 | 22.22° C | 28% | 1014.4 hPa | - | - | - | - |
| 1777883100 | 22.22° C | 30% | 1014.6 hPa | - | - | - | - |
| 1777882201 | 21.67° C | 33% | 1014.5 hPa | - | - | - | - |
| 1777881300 | 20.56° C | 35% | 1014.6 hPa | - | - | - | - |
| 1777880400 | 20° C | 38% | 1014.5 hPa | - | - | - | - |
| 1777879506 | 18.33° C | 39% | 1014.7 hPa | - | - | - | - |
| 1777878600 | 17.78° C | 41% | 1014.5 hPa | - | - | - | - |
* Rain since midnight (hover to see other rain measurements)
** Current wind speed in m/s (hover to see current wind gust speed)